Time;durP1;ratioP1;P1;durP2;ratioP2;P2;SDS_P1;SDS_P2;PMS_P1;PMS_P2;Temp;Humidity;BMP_temperature;BMP_pressure;BME280_temperature;BME280_humidity;BME280_pressure;Samples;Min_cycle;Max_cycle;Signal;HPM_P1;HPM_P2
2021/08/16 00:01:08;;;;;;;5.53;2.97;;;;;;;25.94;33.51;99583.38;5111684;28;20027;-79
2021/08/16 00:03:33;;;;;;;4.97;2.75;;;;;;;26.05;33.81;99605.81;5111537;28;20094;-78
2021/08/16 00:05:59;;;;;;;3.92;2.03;;;;;;;25.93;33.39;99592.56;5111523;28;20027;-78
2021/08/16 00:08:24;;;;;;;4.20;2.78;;;;;;;25.89;33.66;99584.22;5111523;28;20391;-78
2021/08/16 00:10:50;;;;;;;5.13;2.33;;;;;;;25.52;33.84;99530.53;5093592;28;20080;-80
2021/08/16 00:13:15;;;;;;;6.40;2.58;;;;;;;25.83;33.72;99590.72;5111766;28;20024;-80
2021/08/16 00:15:41;;;;;;;2.85;2.35;;;;;;;25.51;33.68;99542.41;5111812;28;20022;-79
2021/08/16 00:18:06;;;;;;;6.45;2.53;;;;;;;25.90;34.05;99604.75;5111680;28;20508;-79
2021/08/16 00:20:32;;;;;;;3.65;2.53;;;;;;;25.85;34.01;99598.56;5111604;28;20103;-79
2021/08/16 00:22:58;;;;;;;3.95;2.15;;;;;;;25.41;34.07;99534.34;5111594;28;20022;-79
2021/08/16 00:25:24;;;;;;;5.93;2.47;;;;;;;25.41;34.26;99544.34;5111527;28;20054;-75
2021/08/16 00:27:49;;;;;;;2.90;2.60;;;;;;;25.65;34.65;99597.56;5111453;28;20020;-72
2021/08/16 00:30:15;;;;;;;3.67;2.45;;;;;;;25.60;34.66;99600.25;5111483;28;20102;-75
2021/08/16 00:32:41;;;;;;;7.13;2.60;;;;;;;25.56;34.85;99601.88;5111445;28;20404;-75
2021/08/16 00:35:07;;;;;;;4.65;2.15;;;;;;;25.51;34.90;99592.97;5111351;28;20024;-75
2021/08/16 00:37:32;;;;;;;4.60;2.47;;;;;;;25.10;35.26;99544.41;5111547;28;20047;-75
2021/08/16 00:39:57;;;;;;;3.90;2.28;;;;;;;25.41;35.19;99582.19;5093138;28;20552;-72
2021/08/16 00:42:24;;;;;;;5.40;2.70;;;;;;;25.11;35.37;99537.09;5114188;28;20016;-75
2021/08/16 00:44:49;;;;;;;4.28;2.58;;;;;;;25.45;35.30;99592.19;5115583;28;20037;-75
2021/08/16 00:47:16;;;;;;;3.90;2.55;;;;;;;25.29;35.44;99571.69;5115631;28;20020;-75
2021/08/16 00:49:41;;;;;;;4.72;2.80;;;;;;;25.48;35.36;99596.22;5115457;28;20121;-74
2021/08/16 00:52:07;;;;;;;3.83;2.63;;;;;;;25.12;35.63;99547.63;5115395;28;20496;-74
2021/08/16 00:54:32;;;;;;;2.92;2.40;;;;;;;25.36;35.71;99583.03;5115254;28;20042;-75
2021/08/16 00:56:59;;;;;;;4.22;2.90;;;;;;;25.01;36.10;99537.94;5115190;28;20484;-75
2021/08/16 00:59:25;;;;;;;5.30;2.97;;;;;;;25.23;36.25;99583.56;5096955;28;20100;-74
2021/08/16 01:01:50;;;;;;;5.32;3.60;;;;;;;25.12;36.56;99585.47;5115259;28;20047;-75
2021/08/16 01:04:15;;;;;;;7.15;3.20;;;;;;;24.76;36.76;99541.44;5115088;28;20015;-75
2021/08/16 01:06:41;;;;;;;3.50;3.20;;;;;;;24.59;36.92;99552.53;5115074;28;20030;-75
2021/08/16 01:09:06;;;;;;;4.07;2.85;;;;;;;24.48;37.14;99555.44;5115023;28;20055;-76
2021/08/16 01:11:33;;;;;;;4.00;3.38;;;;;;;24.57;37.46;99578.16;5115092;28;20023;-75
2021/08/16 01:13:58;;;;;;;4.82;3.05;;;;;;;24.31;37.46;99542.22;5115160;28;20189;-75
2021/08/16 01:16:23;;;;;;;5.35;3.40;;;;;;;24.54;37.67;99595.72;5114746;28;20123;-75
2021/08/16 01:18:49;;;;;;;3.67;3.13;;;;;;;24.46;37.76;99593.50;5114680;28;20073;-75
2021/08/16 01:21:17;;;;;;;4.00;3.40;;;;;;;24.25;37.98;99567.53;5114914;28;20058;-75
2021/08/16 01:23:44;;;;;;;5.40;3.30;;;;;;;24.28;38.18;99583.22;5114879;28;20406;-75
2021/08/16 01:26:10;;;;;;;4.93;3.40;;;;;;;24.25;38.30;99594.50;5114583;28;20051;-75
2021/08/16 01:28:36;;;;;;;4.97;3.40;;;;;;;24.22;38.53;99598.56;5114682;28;20088;-75
2021/08/16 01:31:04;;;;;;;5.45;3.50;;;;;;;23.82;38.39;99539.91;5114740;28;20488;-74
2021/08/16 01:33:31;;;;;;;3.97;3.40;;;;;;;24.00;38.51;99562.88;5114524;28;20157;-75
2021/08/16 01:35:57;;;;;;;5.93;3.17;;;;;;;24.18;38.54;99591.25;5114502;28;20407;-75
2021/08/16 01:38:38;;;;;;;3.85;3.20;;;;;;;24.25;38.79;99597.22;5114299;28;20035;-75
2021/08/16 01:41:05;;;;;;;4.85;3.38;;;;;;;24.23;38.73;99602.06;5114272;28;20507;-74
2021/08/16 01:43:31;;;;;;;4.35;3.35;;;;;;;23.84;38.56;99535.06;5095830;28;20098;-75
2021/08/16 01:45:56;;;;;;;4.32;3.03;;;;;;;24.13;38.53;99599.34;5114186;28;20031;-75
2021/08/16 01:48:22;;;;;;;3.40;3.10;;;;;;;24.07;38.68;99596.63;5114372;28;20016;-75
2021/08/16 01:50:48;;;;;;;3.20;2.90;;;;;;;24.04;38.57;99607.13;5114235;28;20027;-75
2021/08/16 01:53:13;;;;;;;4.88;3.45;;;;;;;23.99;38.88;99597.13;5113642;28;20030;-75
2021/08/16 01:55:39;;;;;;;5.15;3.25;;;;;;;23.88;39.12;99582.00;5114192;28;20063;-76
2021/08/16 01:58:05;;;;;;;5.50;2.97;;;;;;;23.99;39.16;99591.75;5114022;28;20480;-75
2021/08/16 02:00:31;;;;;;;4.45;3.35;;;;;;;24.00;38.97;99587.97;5113930;28;20027;-74
2021/08/16 02:02:57;;;;;;;3.92;3.05;;;;;;;23.85;38.88;99554.75;5113788;28;20008;-75
2021/08/16 02:05:22;;;;;;;3.85;3.03;;;;;;;24.02;39.08;99579.63;5113958;28;20034;-75
2021/08/16 02:07:48;;;;;;;3.85;3.45;;;;;;;24.04;38.85;99597.16;5114087;28;20027;-75
2021/08/16 02:10:13;;;;;;;7.07;3.75;;;;;;;23.56;39.16;99535.47;5113923;28;20023;-75
2021/08/16 02:12:39;;;;;;;6.57;3.63;;;;;;;23.86;39.34;99604.91;5113816;28;20024;-75
2021/08/16 02:15:09;;;;;;;5.93;3.40;;;;;;;23.65;39.60;99594.00;5095407;28;20054;-75
2021/08/16 02:17:35;;;;;;;4.63;3.60;;;;;;;23.62;39.83;99602.63;5113703;28;20023;-75
2021/08/16 02:20:01;;;;;;;4.65;3.83;;;;;;;23.56;40.02;99608.25;5113764;28;20038;-76
2021/08/16 02:22:26;;;;;;;4.07;3.47;;;;;;;23.41;40.20;99592.78;5113580;28;20076;-75
2021/08/16 02:24:52;;;;;;;6.65;3.63;;;;;;;23.26;40.11;99566.56;5113410;28;20023;-76
2021/08/16 02:27:17;;;;;;;6.15;3.63;;;;;;;23.46;40.38;99601.69;5113457;28;20024;-76
2021/08/16 02:29:43;;;;;;;4.85;3.40;;;;;;;23.42;40.40;99610.56;5113399;28;20031;-75
2021/08/16 02:32:09;;;;;;;4.90;3.60;;;;;;;23.37;40.49;99607.84;5113424;28;20096;-76
2021/08/16 02:34:35;;;;;;;4.40;3.47;;;;;;;23.26;40.74;99609.66;5113286;28;20019;-75
2021/08/16 02:37:00;;;;;;;8.05;4.10;;;;;;;22.94;40.84;99571.97;5113237;28;20053;-75
2021/08/16 02:39:25;;;;;;;6.18;3.40;;;;;;;23.11;40.73;99602.28;5113316;28;20117;-75
2021/08/16 02:41:51;;;;;;;4.38;3.47;;;;;;;22.98;40.52;99601.88;5113142;28;20027;-76
2021/08/16 02:44:16;;;;;;;5.88;4.10;;;;;;;22.79;40.64;99574.50;5112978;28;20030;-75
2021/08/16 02:46:42;;;;;;;5.22;3.88;;;;;;;22.87;40.75;99590.22;5113228;28;20032;-75
2021/08/16 02:49:07;;;;;;;4.50;3.65;;;;;;;22.85;40.70;99595.06;5113270;28;20028;-75
2021/08/16 02:51:33;;;;;;;12.13;4.55;;;;;;;22.56;40.75;99538.00;5113009;28;20023;-75
2021/08/16 02:53:58;;;;;;;4.35;3.67;;;;;;;22.92;40.61;99597.53;5113062;28;20028;-74
2021/08/16 02:56:24;;;;;;;4.75;3.22;;;;;;;22.89;40.53;99608.81;5113099;28;20481;-75
2021/08/16 02:58:49;;;;;;;5.68;3.78;;;;;;;22.81;40.92;99602.84;5112994;28;20019;-75
2021/08/16 03:01:14;;;;;;;7.90;3.95;;;;;;;22.80;40.90;99606.59;5112987;28;20024;-75
2021/08/16 03:03:40;;;;;;;6.47;4.03;;;;;;;22.76;40.95;99601.94;5112728;28;20481;-75
2021/08/16 03:06:05;;;;;;;5.50;3.50;;;;;;;22.43;40.84;99543.78;5111858;28;20084;-75
2021/08/16 03:08:35;;;;;;;5.88;3.80;;;;;;;22.48;40.71;99549.22;5112721;28;20459;-76
2021/08/16 03:11:03;;;;;;;6.43;3.83;;;;;;;22.79;40.90;99615.69;5112573;28;20023;-75
2021/08/16 03:13:28;;;;;;;5.85;3.92;;;;;;;22.80;40.90;99608.47;5112518;28;20027;-75
2021/08/16 03:15:54;;;;;;;4.95;3.80;;;;;;;22.78;40.94;99608.69;5112398;28;20561;-75
2021/08/16 03:18:19;;;;;;;8.77;4.25;;;;;;;22.76;40.83;99607.31;5112504;28;20385;-75
2021/08/16 03:20:45;;;;;;;8.35;4.03;;;;;;;22.72;41.01;99609.72;5112541;28;20422;-75
2021/08/16 03:23:10;;;;;;;6.70;4.00;;;;;;;22.69;40.92;99612.91;5112529;28;20027;-75
2021/08/16 03:25:36;;;;;;;10.52;4.20;;;;;;;22.39;40.84;99564.22;5090683;28;20055;-74
2021/08/16 03:28:02;;;;;;;5.57;3.90;;;;;;;22.66;40.93;99607.25;5091981;28;20032;-75
2021/08/16 03:30:27;;;;;;;5.22;3.88;;;;;;;22.31;41.11;99567.34;5092227;28;20035;-74
2021/08/16 03:32:53;;;;;;;7.53;3.83;;;;;;;22.58;41.12;99607.69;5091892;28;20099;-75
2021/08/16 03:35:18;;;;;;;6.88;4.15;;;;;;;22.56;41.10;99605.25;5091967;28;20031;-75
2021/08/16 03:37:45;;;;;;;7.40;4.57;;;;;;;22.12;41.25;99548.03;5091708;28;20462;-75
2021/08/16 03:40:12;;;;;;;10.80;4.53;;;;;;;22.11;41.55;99551.78;5091626;28;20038;-74
2021/08/16 03:42:38;;;;;;;6.18;4.00;;;;;;;22.42;41.51;99609.44;5091740;28;20032;-74
2021/08/16 03:45:08;;;;;;;6.15;4.05;;;;;;;22.13;41.61;99569.31;5090557;28;20552;-74
2021/08/16 03:47:34;;;;;;;5.75;4.60;;;;;;;21.95;41.69;99566.09;5091730;28;20511;-74
2021/08/16 03:49:59;;;;;;;7.68;4.72;;;;;;;22.22;41.79;99611.88;5091746;28;20036;-75
2021/08/16 03:52:24;;;;;;;12.25;6.53;;;;;;;21.29;42.04;99466.69;5090432;28;20051;-75
2021/08/16 03:54:50;;;;;;;14.35;7.68;;;;;;;22.14;41.90;99616.66;5090081;28;20514;-74
2021/08/16 03:57:15;;;;;;;27.08;10.57;;;;;;;22.13;41.93;99617.72;5091588;28;20110;-75
2021/08/16 03:59:41;;;;;;;18.55;11.52;;;;;;;21.94;42.09;99591.38;5091600;28;20024;-75
2021/08/16 04:02:06;;;;;;;19.70;12.73;;;;;;;21.88;42.02;99574.38;5091633;28;20024;-75
2021/08/16 04:04:32;;;;;;;22.25;15.23;;;;;;;21.77;42.14;99565.38;5091546;28;20024;-75
2021/08/16 04:06:58;;;;;;;24.92;15.05;;;;;;;22.12;41.83;99621.47;5091479;28;20031;-74
2021/08/16 04:09:23;;;;;;;26.17;14.27;;;;;;;22.17;41.83;99631.47;5091538;28;20030;-74
2021/08/16 04:11:49;;;;;;;21.08;13.23;;;;;;;21.76;41.96;99561.06;5091469;28;20024;-74
2021/08/16 04:14:14;;;;;;;21.90;11.57;;;;;;;21.70;42.00;99555.88;5091458;28;20024;-75
2021/08/16 04:16:39;;;;;;;21.33;10.68;;;;;;;22.18;41.96;99633.91;5094272;28;20439;-75
2021/08/16 04:19:05;;;;;;;20.50;10.73;;;;;;;22.07;42.10;99610.66;5098086;28;20054;-75
2021/08/16 04:21:30;;;;;;;20.15;11.90;;;;;;;22.09;42.07;99613.91;5097991;28;20046;-75
2021/08/16 04:23:56;;;;;;;27.20;13.90;;;;;;;22.01;41.99;99598.19;5098241;28;20028;-74
2021/08/16 04:26:21;;;;;;;22.50;13.88;;;;;;;22.25;41.89;99627.50;5111319;28;20051;-75
2021/08/16 04:28:47;;;;;;;22.08;13.45;;;;;;;22.02;42.14;99594.44;5118442;28;20023;-74
2021/08/16 04:31:12;;;;;;;18.10;10.73;;;;;;;21.87;42.02;99567.38;5100228;28;20086;-75
2021/08/16 04:33:38;;;;;;;17.48;10.85;;;;;;;22.24;42.10;99625.88;5118244;28;20027;-75
2021/08/16 04:36:03;;;;;;;22.95;12.18;;;;;;;22.02;42.07;99586.34;5118478;28;20030;-75
2021/08/16 04:38:29;;;;;;;22.90;13.13;;;;;;;21.94;42.16;99569.84;5099844;28;20027;-75
2021/08/16 04:40:54;;;;;;;18.77;13.63;;;;;;;22.41;42.06;99624.75;5099740;28;20054;-75
2021/08/16 04:43:21;;;;;;;23.08;15.45;;;;;;;22.45;41.83;99623.19;5100133;28;20024;-75
2021/08/16 04:45:47;;;;;;;21.50;14.30;;;;;;;22.15;41.85;99571.75;5099980;28;20034;-74
2021/08/16 04:48:13;;;;;;;21.08;15.85;;;;;;;22.55;41.73;99619.78;5118370;28;20023;-75
2021/08/16 04:50:38;;;;;;;26.40;17.13;;;;;;;22.58;41.81;99637.31;5118192;28;20039;-75
2021/08/16 04:53:04;;;;;;;31.25;17.48;;;;;;;22.23;41.92;99567.78;5117903;28;20031;-74
2021/08/16 04:55:29;;;;;;;28.38;17.25;;;;;;;22.26;41.85;99567.28;5117971;28;20034;-75
2021/08/16 04:57:55;;;;;;;25.38;16.10;;;;;;;22.67;41.56;99635.78;5118014;28;20027;-74
2021/08/16 05:00:24;;;;;;;24.92;15.27;;;;;;;22.75;41.72;99635.31;5099705;28;20032;-74
2021/08/16 05:02:51;;;;;;;23.80;14.93;;;;;;;22.82;41.62;99631.38;5117992;28;20025;-75
2021/08/16 05:05:17;;;;;;;25.65;15.68;;;;;;;22.88;41.56;99636.81;5118187;28;20043;-74
2021/08/16 05:07:50;;;;;;;22.48;15.35;;;;;;;22.92;41.52;99627.97;5118025;28;20091;-75
2021/08/16 05:10:17;;;;;;;31.27;16.02;;;;;;;22.99;41.32;99641.22;5117993;28;20024;-75
2021/08/16 05:12:42;;;;;;;30.83;17.10;;;;;;;23.05;41.37;99637.50;5117725;28;20064;-74
2021/08/16 05:15:08;;;;;;;30.58;15.82;;;;;;;23.11;41.19;99637.28;5118120;28;20036;-75
2021/08/16 05:17:34;;;;;;;31.65;16.17;;;;;;;23.10;41.09;99624.91;5118039;28;20028;-75
2021/08/16 05:20:03;;;;;;;21.67;14.00;;;;;;;23.26;41.10;99641.97;5118094;28;20046;-76
2021/08/16 05:22:28;;;;;;;25.42;14.63;;;;;;;23.34;41.09;99643.38;5117749;28;20027;-76
2021/08/16 05:24:53;;;;;;;25.35;14.10;;;;;;;23.31;40.93;99627.75;5117674;28;20034;-73
2021/08/16 05:27:19;;;;;;;20.70;13.57;;;;;;;23.50;40.89;99644.28;5117077;28;20027;-75
2021/08/16 05:29:44;;;;;;;21.85;11.90;;;;;;;23.59;40.83;99637.38;5113737;28;20579;-73
2021/08/16 05:32:10;;;;;;;23.60;13.27;;;;;;;23.56;40.58;99627.13;5114385;28;20027;-75
2021/08/16 05:34:36;;;;;;;19.60;13.27;;;;;;;23.73;40.43;99642.03;5114228;28;20023;-74
2021/08/16 05:37:03;;;;;;;14.95;10.63;;;;;;;23.77;40.38;99640.44;5111124;28;20027;-75
2021/08/16 05:39:28;;;;;;;16.35;10.52;;;;;;;23.85;40.35;99643.75;5113647;28;20488;-74
2021/08/16 05:41:54;;;;;;;13.90;9.23;;;;;;;23.69;40.30;99610.47;5108786;28;20106;-73
2021/08/16 05:44:19;;;;;;;14.57;8.85;;;;;;;23.56;40.60;99579.41;5102058;28;20039;-75
2021/08/16 05:46:44;;;;;;;16.67;8.95;;;;;;;24.05;40.33;99639.25;5093741;28;20576;-76
2021/08/16 05:49:10;;;;;;;16.85;8.98;;;;;;;24.16;40.25;99641.97;5112147;28;20122;-74
2021/08/16 05:51:35;;;;;;;9.85;7.20;;;;;;;24.06;39.89;99605.78;5095809;28;20081;-76
2021/08/16 05:54:01;;;;;;;12.10;9.18;;;;;;;24.33;39.81;99635.31;5112041;28;20068;-74
2021/08/16 05:56:26;;;;;;;11.05;7.47;;;;;;;24.31;39.53;99632.06;5098583;28;20055;-76
2021/08/16 05:58:51;;;;;;;10.13;7.43;;;;;;;24.44;39.34;99644.25;5095294;28;20404;-72
2021/08/16 06:01:17;;;;;;;9.10;7.50;;;;;;;24.17;39.15;99600.44;5113869;28;20030;-74
2021/08/16 06:03:42;;;;;;;9.10;8.15;;;;;;;24.47;38.92;99632.91;5095640;28;20015;-74
2021/08/16 06:06:08;;;;;;;14.18;10.77;;;;;;;24.39;38.78;99609.16;5113804;28;20024;-75
2021/08/16 06:08:33;;;;;;;8.82;7.43;;;;;;;24.39;38.62;99601.06;5113593;28;20405;-75
2021/08/16 06:10:59;;;;;;;8.65;7.50;;;;;;;24.59;38.71;99630.81;5112521;28;20469;-75
2021/08/16 06:13:24;;;;;;;9.48;7.50;;;;;;;24.51;38.53;99615.09;5092798;28;20020;-75
2021/08/16 06:15:50;;;;;;;12.57;7.65;;;;;;;24.65;38.89;99629.75;5093114;28;20112;-75
2021/08/16 06:18:15;;;;;;;10.98;7.32;;;;;;;24.72;38.56;99629.47;5092925;28;20093;-74
2021/08/16 06:20:41;;;;;;;12.95;7.20;;;;;;;24.81;38.36;99629.75;5103958;28;20069;-74
2021/08/16 06:23:06;;;;;;;10.77;6.40;;;;;;;24.84;38.15;99627.31;5107880;27;20027;-75
2021/08/16 06:25:32;;;;;;;6.95;5.95;;;;;;;24.90;38.23;99630.84;5109632;28;20596;-75
2021/08/16 06:27:57;;;;;;;6.05;5.47;;;;;;;24.97;37.98;99629.50;5112987;28;20114;-74
2021/08/16 06:30:23;;;;;;;8.90;5.85;;;;;;;25.12;38.05;99636.00;5099419;28;20024;-75
2021/08/16 06:32:48;;;;;;;11.27;5.95;;;;;;;24.76;37.97;99579.25;5111391;28;20045;-74
2021/08/16 06:35:15;;;;;;;8.25;6.55;;;;;;;25.19;37.84;99618.41;5103354;28;20483;-75
2021/08/16 06:37:41;;;;;;;7.55;6.55;;;;;;;25.25;37.43;99620.03;5094648;28;21969;-75
2021/08/16 06:40:07;;;;;;;15.52;7.57;;;;;;;25.43;37.45;99634.91;5110628;27;20496;-75
2021/08/16 06:42:34;;;;;;;11.30;7.28;;;;;;;25.52;37.12;99637.84;5111845;28;20675;-75
2021/08/16 06:45:00;;;;;;;9.55;7.28;;;;;;;25.57;37.00;99630.53;5112883;28;20049;-75
2021/08/16 06:47:25;;;;;;;14.30;10.60;;;;;;;25.56;36.97;99622.72;5110444;28;20533;-75
2021/08/16 06:49:51;;;;;;;10.93;8.90;;;;;;;25.70;37.13;99637.28;5112711;28;20027;-75
2021/08/16 06:52:17;;;;;;;10.50;8.95;;;;;;;25.81;36.87;99641.59;5110987;28;20020;-75
2021/08/16 06:54:42;;;;;;;12.75;8.80;;;;;;;25.77;36.80;99613.47;5110226;28;20034;-74
2021/08/16 06:57:07;;;;;;;9.55;8.60;;;;;;;25.93;36.69;99633.97;5093738;28;20160;-74
2021/08/16 06:59:33;;;;;;;11.80;8.43;;;;;;;26.06;36.37;99638.00;5110708;28;20027;-74
2021/08/16 07:01:59;;;;;;;8.68;7.78;;;;;;;26.08;36.56;99624.19;5110301;28;20057;-76
2021/08/16 07:04:25;;;;;;;11.43;8.10;;;;;;;26.20;36.24;99635.50;5111603;27;20055;-75
2021/08/16 07:06:50;;;;;;;8.65;7.13;;;;;;;26.07;36.32;99598.22;5111104;28;20031;-75
2021/08/16 07:09:16;;;;;;;7.57;6.80;;;;;;;26.37;36.02;99633.28;5111259;28;20104;-75
2021/08/16 07:11:41;;;;;;;9.23;7.10;;;;;;;26.46;36.15;99634.31;5110063;28;20034;-75
2021/08/16 07:14:07;;;;;;;7.40;6.25;;;;;;;26.51;35.86;99623.44;5112328;28;20030;-75
2021/08/16 07:16:33;;;;;;;9.07;6.80;;;;;;;26.62;35.76;99621.47;5111204;28;20027;-75
2021/08/16 07:18:59;;;;;;;7.20;5.93;;;;;;;26.72;35.89;99623.28;5111847;28;20419;-72
2021/08/16 07:21:24;;;;;;;8.30;7.10;;;;;;;26.84;35.54;99634.59;5110212;28;20031;-76
2021/08/16 07:23:49;;;;;;;9.70;8.52;;;;;;;26.58;35.16;99583.31;5112041;28;20426;-73
2021/08/16 07:26:15;;;;;;;8.23;6.95;;;;;;;26.89;35.21;99624.53;5111863;28;20051;-75
2021/08/16 07:28:45;;;;;;;12.90;8.98;;;;;;;27.03;34.96;99634.75;5109760;27;20027;-75
2021/08/16 07:31:10;;;;;;;10.80;7.63;;;;;;;27.03;34.71;99630.16;5093192;28;20458;-75
2021/08/16 07:33:36;;;;;;;11.85;7.78;;;;;;;27.09;34.74;99628.19;5111814;28;20080;-76
2021/08/16 07:36:01;;;;;;;9.75;7.97;;;;;;;27.25;34.76;99637.00;5091199;28;20019;-73
2021/08/16 07:38:27;;;;;;;11.82;8.25;;;;;;;27.35;34.53;99636.91;5109537;28;20027;-73
2021/08/16 07:40:52;;;;;;;12.55;9.23;;;;;;;27.36;34.00;99620.34;5097309;28;20111;-74
2021/08/16 07:43:20;;;;;;;15.13;10.40;;;;;;;27.21;34.23;99598.81;5091101;28;20122;-73
2021/08/16 07:45:46;;;;;;;11.48;10.23;;;;;;;27.59;33.98;99640.47;5107260;28;20497;-73
2021/08/16 07:48:11;;;;;;;11.77;10.60;;;;;;;27.53;33.79;99625.34;5100513;28;20096;-74
2021/08/16 07:50:36;;;;;;;10.13;9.02;;;;;;;27.77;33.99;99636.25;5096679;28;20028;-74
2021/08/16 07:53:02;;;;;;;10.55;9.50;;;;;;;27.89;33.95;99641.25;5091311;28;20404;-74
2021/08/16 07:55:27;;;;;;;10.98;9.15;;;;;;;28.00;33.60;99632.69;5111589;28;20088;-72
2021/08/16 07:57:53;;;;;;;10.80;8.85;;;;;;;28.07;33.80;99627.72;5111562;28;20019;-73
2021/08/16 08:00:18;;;;;;;17.35;10.85;;;;;;;27.95;33.30;99589.34;5093105;28;20028;-73
2021/08/16 08:02:49;;;;;;;15.85;11.00;;;;;;;28.30;33.12;99636.16;5109763;28;20032;-75
2021/08/16 08:05:22;;;;;;;13.45;11.85;;;;;;;28.42;32.81;99634.63;5106929;28;20451;-76
2021/08/16 08:07:49;;;;;;;12.30;11.00;;;;;;;28.37;33.03;99601.31;5093133;28;20028;-75
2021/08/16 08:10:16;;;;;;;14.88;11.05;;;;;;;28.67;33.08;99633.44;5100341;28;20027;-71
2021/08/16 08:12:43;;;;;;;14.43;12.15;;;;;;;28.50;33.00;99575.31;5111333;28;20020;-74
2021/08/16 08:15:09;;;;;;;13.63;12.00;;;;;;;28.96;32.56;99611.53;5110837;28;20076;-75
2021/08/16 08:17:35;;;;;;;12.38;10.63;;;;;;;28.65;32.50;99554.16;5092593;28;20028;-71
2021/08/16 08:20:00;;;;;;;15.40;12.27;;;;;;;29.20;32.47;99619.59;5111039;28;20513;-73
2021/08/16 08:22:27;;;;;;;15.70;13.38;;;;;;;29.34;32.29;99611.44;5091186;28;20102;-75
2021/08/16 08:24:53;;;;;;;16.75;14.20;;;;;;;29.09;32.04;99552.91;5106563;28;20035;-74
2021/08/16 08:27:19;;;;;;;14.50;11.95;;;;;;;29.58;32.13;99605.84;5091407;28;20034;-74
2021/08/16 08:29:44;;;;;;;14.32;10.98;;;;;;;29.70;31.78;99598.00;5109272;28;20032;-76
2021/08/16 08:32:11;;;;;;;14.45;10.68;;;;;;;29.71;31.48;99603.13;5109012;28;20042;-73
2021/08/16 08:34:36;;;;;;;11.40;10.20;;;;;;;29.70;31.41;99584.38;5092359;28;20514;-76
2021/08/16 08:37:04;;;;;;;13.43;9.95;;;;;;;29.56;30.72;99551.75;5090064;28;20031;-76
2021/08/16 08:39:30;;;;;;;14.77;11.10;;;;;;;29.70;30.25;99562.63;5108473;28;20027;-74
2021/08/16 08:42:01;;;;;;;11.88;9.30;;;;;;;30.06;29.93;99594.59;5107255;28;20431;-75
2021/08/16 08:44:27;;;;;;;10.75;9.63;;;;;;;29.86;30.37;99553.03;5106123;28;20020;-74
2021/08/16 08:46:53;;;;;;;10.77;9.15;;;;;;;30.22;30.59;99588.50;5107416;28;20500;-75
2021/08/16 08:49:19;;;;;;;10.63;9.50;;;;;;;30.31;29.83;99591.28;5108475;28;20042;-74
2021/08/16 08:51:45;;;;;;;12.73;9.05;;;;;;;30.19;29.97;99550.16;5109914;28;20032;-74
2021/08/16 08:54:10;;;;;;;14.27;9.68;;;;;;;30.07;29.79;99512.59;5111975;28;20567;-76
2021/08/16 08:56:36;;;;;;;10.10;9.00;;;;;;;30.31;29.71;99534.88;5108787;28;20023;-74
2021/08/16 08:59:02;;;;;;;11.85;9.68;;;;;;;30.64;29.25;99564.69;5107747;28;20024;-74
2021/08/16 09:01:27;;;;;;;13.88;9.52;;;;;;;30.79;29.09;99572.47;5108548;28;20102;-76
2021/08/16 09:03:55;;;;;;;11.80;9.52;;;;;;;30.86;28.96;99572.03;5111832;28;20102;-74
2021/08/16 09:06:46;;;;;;;12.73;9.25;;;;;;;30.92;28.43;99577.03;5095710;28;20476;-73
2021/08/16 09:09:13;;;;;;;10.55;8.80;;;;;;;30.90;28.58;99551.22;5112115;28;20050;-75
2021/08/16 09:11:51;;;;;;;13.25;9.63;;;;;;;31.20;28.18;99566.00;5112633;28;20031;-75
2021/08/16 09:14:17;;;;;;;10.90;9.80;;;;;;;31.42;28.16;99555.03;5102330;28;20035;-75
2021/08/16 09:16:46;;;;;;;10.90;8.30;;;;;;;31.22;27.64;99496.38;5091689;28;20034;-75
2021/08/16 09:19:26;;;;;;;9.63;8.63;;;;;;;31.77;27.26;99566.09;5098965;28;20032;-75
2021/08/16 09:22:07;;;;;;;12.70;9.48;;;;;;;31.58;26.95;99506.28;5082858;28;20435;-74
2021/08/16 09:24:35;;;;;;;11.90;9.95;;;;;;;31.95;26.65;99536.88;5112361;28;20019;-78
2021/08/16 09:27:04;;;;;;;13.10;9.57;;;;;;;32.15;26.94;99547.19;5113118;28;20051;-79
2021/08/16 09:29:29;;;;;;;10.93;8.75;;;;;;;32.32;26.52;99543.69;5112528;28;20070;-79
2021/08/16 09:32:05;;;;;;;10.60;8.82;;;;;;;32.40;26.15;99516.38;5113899;28;20051;-77
2021/08/16 09:34:37;;;;;;;11.50;8.75;;;;;;;32.75;25.79;99533.53;5113490;28;20137;-78
2021/08/16 09:37:14;;;;;;;11.27;8.73;;;;;;;32.68;25.56;99508.59;5112643;28;20027;-79
2021/08/16 09:39:39;;;;;;;10.63;8.48;;;;;;;32.94;25.36;99533.19;5112355;28;20408;-79
2021/08/16 09:42:05;;;;;;;13.57;8.75;;;;;;;33.08;25.32;99525.56;5111668;28;20024;-79
2021/08/16 09:44:31;;;;;;;11.10;8.30;;;;;;;33.04;25.18;99494.53;5112184;28;20032;-78
2021/08/16 09:47:04;;;;;;;11.18;8.77;;;;;;;33.40;24.92;99521.44;5111381;28;20020;-78
2021/08/16 09:49:31;;;;;;;10.50;8.30;;;;;;;33.59;24.60;99523.78;5109311;28;20019;-76
2021/08/16 09:52:09;;;;;;;11.90;8.65;;;;;;;33.67;24.51;99519.38;5075070;28;20111;-79
2021/08/16 09:54:36;;;;;;;12.45;8.52;;;;;;;33.76;24.22;99514.63;5106511;28;20446;-77
2021/08/16 09:57:04;;;;;;;13.82;8.93;;;;;;;33.89;23.78;99513.59;5093004;28;20031;-77
2021/08/16 09:59:31;;;;;;;10.35;7.93;;;;;;;34.01;23.88;99499.19;5086766;28;20407;-78
2021/08/16 10:01:57;;;;;;;10.48;8.35;;;;;;;34.27;23.78;99510.75;5113218;28;20032;-78
2021/08/16 10:04:23;;;;;;;10.48;8.60;;;;;;;34.48;23.47;99502.50;5112870;28;20020;-78
2021/08/16 10:06:51;;;;;;;11.30;8.30;;;;;;;34.59;23.62;99503.69;5094805;28;20047;-77
2021/08/16 10:09:20;;;;;;;10.18;7.40;;;;;;;34.19;23.12;99412.13;5113303;28;20030;-78
2021/08/16 10:11:48;;;;;;;8.35;7.55;;;;;;;34.60;22.62;99436.72;5113062;28;20055;-78
2021/08/16 10:14:13;;;;;;;8.45;6.90;;;;;;;34.78;22.65;99425.53;5112972;27;20485;-77
2021/08/16 10:16:43;;;;;;;7.80;6.70;;;;;;;35.28;21.82;99480.94;5122940;27;20030;-78
2021/08/16 10:19:26;;;;;;;9.73;8.75;;;;;;;35.31;22.25;99466.53;5112561;28;20020;-78
2021/08/16 10:21:57;;;;;;;8.63;7.60;;;;;;;35.55;21.84;99475.91;5102149;28;20027;-78
2021/08/16 10:24:25;;;;;;;10.63;7.55;;;;;;;35.53;21.34;99469.97;5098944;28;20492;-75
2021/08/16 10:27:00;;;;;;;9.68;7.47;;;;;;;35.85;21.07;99481.97;5112388;28;20043;-79
2021/08/16 10:29:28;;;;;;;8.43;6.93;;;;;;;35.99;20.99;99487.88;5108488;28;20496;-77
2021/08/16 10:31:54;;;;;;;12.13;8.52;;;;;;;35.93;21.14;99451.59;5110221;28;20039;-78
2021/08/16 10:34:33;;;;;;;9.80;8.80;;;;;;;36.23;21.29;99475.97;5112827;28;20031;-77
2021/08/16 10:37:02;;;;;;;10.30;9.35;;;;;;;36.33;20.84;99471.97;5112762;28;20034;-77
2021/08/16 10:39:38;;;;;;;8.63;7.70;;;;;;;36.42;20.57;99476.19;5111834;28;20020;-79
2021/08/16 10:42:15;;;;;;;9.13;6.88;;;;;;;36.48;19.87;99471.22;5110912;28;20051;-79
2021/08/16 10:44:51;;;;;;;8.45;6.47;;;;;;;36.71;19.42;99468.66;5094265;28;20031;-78
2021/08/16 10:47:30;;;;;;;7.25;6.13;;;;;;;36.91;18.62;99460.19;5111686;28;20051;-78
2021/08/16 10:50:12;;;;;;;6.53;5.47;;;;;;;36.92;18.71;99442.50;5108539;28;20020;-78
2021/08/16 10:52:40;;;;;;;7.03;6.32;;;;;;;37.20;18.73;99453.44;5106753;28;20023;-77
2021/08/16 10:55:14;;;;;;;10.38;6.00;;;;;;;37.33;17.97;99456.09;5111951;28;20016;-76
2021/08/16 10:57:41;;;;;;;8.75;7.95;;;;;;;37.24;18.40;99453.53;5105222;28;20012;-77
2021/08/16 11:00:08;;;;;;;7.95;6.20;;;;;;;37.37;17.87;99443.19;5090358;28;20036;-77
2021/08/16 11:02:34;;;;;;;7.38;6.63;;;;;;;37.41;17.84;99436.63;5093183;28;20035;-78
2021/08/16 11:05:00;;;;;;;7.97;6.95;;;;;;;37.58;17.65;99434.59;5109826;28;20380;-77
2021/08/16 11:07:26;;;;;;;6.88;6.15;;;;;;;37.59;17.53;99414.97;5111072;28;20066;-77
2021/08/16 11:10:00;;;;;;;7.30;6.05;;;;;;;37.73;17.38;99409.78;5111679;28;20507;-76
2021/08/16 11:12:38;;;;;;;7.13;6.40;;;;;;;38.00;17.61;99423.72;5108996;28;20080;-78
2021/08/16 11:15:05;;;;;;;7.63;6.93;;;;;;;37.95;17.45;99422.06;5110179;28;20047;-77
2021/08/16 11:17:31;;;;;;;6.72;6.05;;;;;;;37.84;16.79;99374.94;5110766;28;20472;-76
2021/08/16 11:19:58;;;;;;;8.10;6.55;;;;;;;38.31;16.45;99418.03;5092490;28;20063;-78
2021/08/16 11:22:24;;;;;;;7.68;6.82;;;;;;;38.44;16.46;99402.09;5097014;28;20407;-78
2021/08/16 11:24:49;;;;;;;9.65;8.70;;;;;;;38.46;16.27;99384.00;5111495;28;20016;-74